sensor_id;sensor_type;location;lat;lon;timestamp;pressure;altitude;pressure_sealevel;temperature
64296;BMP280;51082;38.236;15.432;2023-06-24T00:00:46;101245.00;;;25.18
64296;BMP280;51082;38.236;15.432;2023-06-24T00:01:47;101242.34;;;25.18
64296;BMP280;51082;38.236;15.432;2023-06-24T00:02:50;101238.88;;;25.17
64296;BMP280;51082;38.236;15.432;2023-06-24T00:03:56;101247.97;;;25.16
64296;BMP280;51082;38.236;15.432;2023-06-24T00:04:59;101245.00;;;25.18
64296;BMP280;51082;38.236;15.432;2023-06-24T00:06:02;101242.66;;;25.16
64296;BMP280;51082;38.236;15.432;2023-06-24T00:07:04;101233.38;;;25.09
64296;BMP280;51082;38.236;15.432;2023-06-24T00:08:06;101236.56;;;25.11
64296;BMP280;51082;38.236;15.432;2023-06-24T00:09:09;101235.25;;;25.08
64296;BMP280;51082;38.236;15.432;2023-06-24T00:10:11;101235.00;;;25.05
64296;BMP280;51082;38.236;15.432;2023-06-24T00:11:14;101226.53;;;24.98
64296;BMP280;51082;38.236;15.432;2023-06-24T00:12:16;101223.06;;;24.97
64296;BMP280;51082;38.236;15.432;2023-06-24T00:13:20;101237.47;;;24.96
64296;BMP280;51082;38.236;15.432;2023-06-24T00:14:22;101234.03;;;24.91
64296;BMP280;51082;38.236;15.432;2023-06-24T00:15:27;101234.63;;;24.88
64296;BMP280;51082;38.236;15.432;2023-06-24T00:16:29;101224.19;;;24.86
64296;BMP280;51082;38.236;15.432;2023-06-24T00:17:31;101229.53;;;24.86
64296;BMP280;51082;38.236;15.432;2023-06-24T00:18:34;101219.19;;;24.85
64296;BMP280;51082;38.236;15.432;2023-06-24T00:19:37;101229.28;;;24.88
64296;BMP280;51082;38.236;15.432;2023-06-24T00:20:40;101223.97;;;24.88
64296;BMP280;51082;38.236;15.432;2023-06-24T00:21:44;101220.47;;;24.87
64296;BMP280;51082;38.236;15.432;2023-06-24T00:22:46;101217.59;;;24.83
64296;BMP280;51082;38.236;15.432;2023-06-24T00:23:49;101218.09;;;24.86
64296;BMP280;51082;38.236;15.432;2023-06-24T00:24:52;101221.03;;;24.84
64296;BMP280;51082;38.236;15.432;2023-06-24T00:25:54;101221.88;;;24.79
64296;BMP280;51082;38.236;15.432;2023-06-24T00:26:57;101213.63;;;24.76
64296;BMP280;51082;38.236;15.432;2023-06-24T00:27:59;101214.97;;;24.73
64296;BMP280;51082;38.236;15.432;2023-06-24T00:29:01;101210.72;;;24.72
64296;BMP280;51082;38.236;15.432;2023-06-24T00:30:04;101218.25;;;24.65
64296;BMP280;51082;38.236;15.432;2023-06-24T00:31:07;101223.03;;;24.63
64296;BMP280;51082;38.236;15.432;2023-06-24T00:32:09;101217.72;;;24.63
64296;BMP280;51082;38.236;15.432;2023-06-24T00:33:11;101217.44;;;24.65
64296;BMP280;51082;38.236;15.432;2023-06-24T00:34:14;101217.72;;;24.63
64296;BMP280;51082;38.236;15.432;2023-06-24T00:35:22;101210.53;;;24.59
64296;BMP280;51082;38.236;15.432;2023-06-24T00:36:24;101211.91;;;24.56
64296;BMP280;51082;38.236;15.432;2023-06-24T00:37:27;101212.16;;;24.55
64296;BMP280;51082;38.236;15.432;2023-06-24T00:38:29;101215.13;;;24.53
64296;BMP280;51082;38.236;15.432;2023-06-24T00:39:33;101201.56;;;24.50
64296;BMP280;51082;38.236;15.432;2023-06-24T00:40:35;101205.53;;;24.52
64296;BMP280;51082;38.236;15.432;2023-06-24T00:41:37;101203.47;;;24.44
64296;BMP280;51082;38.236;15.432;2023-06-24T00:42:39;101202.38;;;24.45
64296;BMP280;51082;38.236;15.432;2023-06-24T00:43:42;101194.91;;;24.52
64296;BMP280;51082;38.236;15.432;2023-06-24T00:44:44;101196.75;;;24.52
64296;BMP280;51082;38.236;15.432;2023-06-24T00:45:46;101195.69;;;24.53
64296;BMP280;51082;38.236;15.432;2023-06-24T00:46:50;101188.50;;;24.53
64296;BMP280;51082;38.236;15.432;2023-06-24T00:47:52;101194.91;;;24.52
64296;BMP280;51082;38.236;15.432;2023-06-24T00:48:56;101187.94;;;24.51
64296;BMP280;51082;38.236;15.432;2023-06-24T00:49:59;101193.28;;;24.51
64296;BMP280;51082;38.236;15.432;2023-06-24T00:51:02;101186.13;;;24.52
64296;BMP280;51082;38.236;15.432;2023-06-24T00:52:06;101181.84;;;24.51
64296;BMP280;51082;38.236;15.432;2023-06-24T00:53:14;101171.22;;;24.51
64296;BMP280;51082;38.236;15.432;2023-06-24T00:54:16;101175.72;;;24.50
64296;BMP280;51082;38.236;15.432;2023-06-24T00:55:18;101177.88;;;24.48
64296;BMP280;51082;38.236;15.432;2023-06-24T00:56:26;101164.56;;;24.48
64296;BMP280;51082;38.236;15.432;2023-06-24T00:57:29;101174.19;;;24.44
64296;BMP280;51082;38.236;15.432;2023-06-24T00:58:32;101163.78;;;24.42
64296;BMP280;51082;38.236;15.432;2023-06-24T00:59:38;101162.44;;;24.50
64296;BMP280;51082;38.236;15.432;2023-06-24T01:00:41;101162.44;;;24.50
64296;BMP280;51082;38.236;15.432;2023-06-24T01:01:43;101153.91;;;24.48
64296;BMP280;51082;38.236;15.432;2023-06-24T01:02:48;101156.56;;;24.48
64296;BMP280;51082;38.236;15.432;2023-06-24T01:03:49;101147.53;;;24.49
64296;BMP280;51082;38.236;15.432;2023-06-24T01:04:52;101148.56;;;24.53
64296;BMP280;51082;38.236;15.432;2023-06-24T01:05:54;101145.34;;;24.51
64296;BMP280;51082;38.236;15.432;2023-06-24T01:06:58;101145.91;;;24.53
64296;BMP280;51082;38.236;15.432;2023-06-24T01:08:00;101148.56;;;24.53
64296;BMP280;51082;38.236;15.432;2023-06-24T01:09:04;101138.41;;;24.55
64296;BMP280;51082;38.236;15.432;2023-06-24T01:10:07;101135.75;;;24.55
64296;BMP280;51082;38.236;15.432;2023-06-24T01:11:10;101135.75;;;24.55
64296;BMP280;51082;38.236;15.432;2023-06-24T01:12:12;101131.00;;;24.52
64296;BMP280;51082;38.236;15.432;2023-06-24T01:13:15;101132.59;;;24.53
64296;BMP280;51082;38.236;15.432;2023-06-24T01:14:17;101127.81;;;24.50
64296;BMP280;51082;38.236;15.432;2023-06-24T01:15:21;101127.28;;;24.53
64296;BMP280;51082;38.236;15.432;2023-06-24T01:16:32;101122.44;;;24.55
64296;BMP280;51082;38.236;15.432;2023-06-24T01:17:40;101116.06;;;24.56
64296;BMP280;51082;38.236;15.432;2023-06-24T01:18:47;101123.00;;;24.52
64296;BMP280;51082;38.236;15.432;2023-06-24T01:20:02;101127.53;;;24.52
64296;BMP280;51082;38.236;15.432;2023-06-24T01:21:10;101118.72;;;24.51
64296;BMP280;51082;38.236;15.432;2023-06-24T01:22:32;101118.72;;;24.51
64296;BMP280;51082;38.236;15.432;2023-06-24T01:25:18;101120.34;;;24.52
64296;BMP280;51082;38.236;15.432;2023-06-24T01:26:43;101118.22;;;24.54
64296;BMP280;51082;38.236;15.432;2023-06-24T01:27:57;101112.88;;;24.54
64296;BMP280;51082;38.236;15.432;2023-06-24T01:29:15;101112.88;;;24.54
64296;BMP280;51082;38.236;15.432;2023-06-24T01:30:38;101112.88;;;24.54
64296;BMP280;51082;38.236;15.432;2023-06-24T01:31:48;101109.69;;;24.52
64296;BMP280;51082;38.236;15.432;2023-06-24T01:32:54;101113.41;;;24.51
64296;BMP280;51082;38.236;15.432;2023-06-24T01:34:01;101105.97;;;24.53
64296;BMP280;51082;38.236;15.432;2023-06-24T01:35:12;101102.81;;;24.46
64296;BMP280;51082;38.236;15.432;2023-06-24T01:36:18;101097.25;;;24.42
64296;BMP280;51082;38.236;15.432;2023-06-24T01:37:24;101086.06;;;24.40
64296;BMP280;51082;38.236;15.432;2023-06-24T01:38:33;101090.38;;;24.36
64296;BMP280;51082;38.236;15.432;2023-06-24T01:39:46;101084.81;;;24.33
64296;BMP280;51082;38.236;15.432;2023-06-24T01:40:50;101084.81;;;24.33
64296;BMP280;51082;38.236;15.432;2023-06-24T01:42:00;101084.03;;;24.32
64296;BMP280;51082;38.236;15.432;2023-06-24T01:43:04;101089.34;;;24.32
64296;BMP280;51082;38.236;15.432;2023-06-24T01:44:09;101089.63;;;24.31
64296;BMP280;51082;38.236;15.432;2023-06-24T01:45:19;101075.78;;;24.29
64296;BMP280;51082;38.236;15.432;2023-06-24T01:46:25;101078.97;;;24.31
64296;BMP280;51082;38.236;15.432;2023-06-24T01:47:29;101078.19;;;24.30
64296;BMP280;51082;38.236;15.432;2023-06-24T01:48:35;101074.72;;;24.30
64296;BMP280;51082;38.236;15.432;2023-06-24T01:49:40;101065.41;;;24.32
64296;BMP280;51082;38.236;15.432;2023-06-24T01:50:48;101067.81;;;24.29
64296;BMP280;51082;38.236;15.432;2023-06-24T01:51:52;101069.38;;;24.35
64296;BMP280;51082;38.236;15.432;2023-06-24T01:52:55;101070.44;;;24.34
64296;BMP280;51082;38.236;15.432;2023-06-24T01:54:01;101073.66;;;24.31
64296;BMP280;51082;38.236;15.432;2023-06-24T01:55:05;101074.16;;;24.33
64296;BMP280;51082;38.236;15.432;2023-06-24T01:56:12;101081.09;;;24.34
64296;BMP280;51082;38.236;15.432;2023-06-24T01:57:15;101078.94;;;24.36
64296;BMP280;51082;38.236;15.432;2023-06-24T01:58:21;101089.06;;;24.34
64296;BMP280;51082;38.236;15.432;2023-06-24T01:59:25;101089.34;;;24.32
64296;BMP280;51082;38.236;15.432;2023-06-24T02:00:31;101079.28;;;24.29
64296;BMP280;51082;38.236;15.432;2023-06-24T02:01:34;101086.97;;;24.31
64296;BMP280;51082;38.236;15.432;2023-06-24T02:02:39;101082.97;;;24.28
64296;BMP280;51082;38.236;15.432;2023-06-24T02:03:42;101080.59;;;24.27
64296;BMP280;51082;38.236;15.432;2023-06-24T02:04:45;101072.59;;;24.27
64296;BMP280;51082;38.236;15.432;2023-06-24T02:05:48;101063.06;;;24.26
64296;BMP280;51082;38.236;15.432;2023-06-24T02:06:51;101067.88;;;24.19
64296;BMP280;51082;38.236;15.432;2023-06-24T02:07:56;101062.09;;;24.11
64296;BMP280;51082;38.236;15.432;2023-06-24T02:09:01;101062.34;;;24.10
64296;BMP280;51082;38.236;15.432;2023-06-24T02:10:06;101062.34;;;24.10
64296;BMP280;51082;38.236;15.432;2023-06-24T02:11:11;101056.78;;;24.11
64296;BMP280;51082;38.236;15.432;2023-06-24T02:12:13;101062.09;;;24.11
64296;BMP280;51082;38.236;15.432;2023-06-24T02:13:17;101067.16;;;24.08
64296;BMP280;51082;38.236;15.432;2023-06-24T02:14:19;101067.41;;;24.11
64296;BMP280;51082;38.236;15.432;2023-06-24T02:15:22;101067.94;;;24.08
64296;BMP280;51082;38.236;15.432;2023-06-24T02:16:26;101066.03;;;24.14
64296;BMP280;51082;38.236;15.432;2023-06-24T02:17:28;101070.84;;;24.12
64296;BMP280;51082;38.236;15.432;2023-06-24T02:18:33;101064.75;;;24.11
64296;BMP280;51082;38.236;15.432;2023-06-24T02:19:37;101064.75;;;24.11
64296;BMP280;51082;38.236;15.432;2023-06-24T02:20:41;101058.09;;;24.09
64296;BMP280;51082;38.236;15.432;2023-06-24T02:21:45;101064.75;;;24.11
64296;BMP280;51082;38.236;15.432;2023-06-24T02:22:49;101061.84;;;24.08
64296;BMP280;51082;38.236;15.432;2023-06-24T02:23:51;101063.97;;;24.06
64296;BMP280;51082;38.236;15.432;2023-06-24T02:24:55;101060.00;;;24.03
64296;BMP280;51082;38.236;15.432;2023-06-24T02:25:57;101061.06;;;24.02
64296;BMP280;51082;38.236;15.432;2023-06-24T02:27:00;101053.38;;;24.01
64296;BMP280;51082;38.236;15.432;2023-06-24T02:28:03;101056.78;;;24.01
64296;BMP280;51082;38.236;15.432;2023-06-24T02:29:08;101054.19;;;23.96
64296;BMP280;51082;38.236;15.432;2023-06-24T02:30:11;101056.84;;;23.96
64296;BMP280;51082;38.236;15.432;2023-06-24T02:31:15;101055.25;;;23.95
64296;BMP280;51082;38.236;15.432;2023-06-24T02:32:17;101068.31;;;23.92
64296;BMP280;51082;38.236;15.432;2023-06-24T02:33:20;101057.91;;;23.95
64296;BMP280;51082;38.236;15.432;2023-06-24T02:34:24;101060.06;;;23.93
64296;BMP280;51082;38.236;15.432;2023-06-24T02:35:26;101067.75;;;23.95
64296;BMP280;51082;38.236;15.432;2023-06-24T02:36:28;101073.88;;;23.95
64296;BMP280;51082;38.236;15.432;2023-06-24T02:37:31;101068.31;;;23.92
64296;BMP280;51082;38.236;15.432;2023-06-24T02:38:33;101070.97;;;23.92
64296;BMP280;51082;38.236;15.432;2023-06-24T02:39:35;101060.63;;;23.90
64296;BMP280;51082;38.236;15.432;2023-06-24T02:40:40;101063.78;;;23.92
64296;BMP280;51082;38.236;15.432;2023-06-24T02:41:45;101069.13;;;23.87
64296;BMP280;51082;38.236;15.432;2023-06-24T02:42:48;101063.53;;;23.89
64296;BMP280;51082;38.236;15.432;2023-06-24T02:43:51;101066.75;;;23.86
64296;BMP280;51082;38.236;15.432;2023-06-24T02:44:53;101062.78;;;23.78
64296;BMP280;51082;38.236;15.432;2023-06-24T02:45:57;101059.84;;;23.85
64296;BMP280;51082;38.236;15.432;2023-06-24T02:46:59;101060.09;;;23.83
64296;BMP280;51082;38.236;15.432;2023-06-24T02:48:03;101064.91;;;23.81
64296;BMP280;51082;38.236;15.432;2023-06-24T02:49:05;101057.72;;;23.82
64296;BMP280;51082;38.236;15.432;2023-06-24T02:50:12;101056.94;;;23.81
64296;BMP280;51082;38.236;15.432;2023-06-24T02:51:14;101057.19;;;23.79
64296;BMP280;51082;38.236;15.432;2023-06-24T02:52:18;101057.47;;;23.78
64296;BMP280;51082;38.236;15.432;2023-06-24T02:53:20;101061.72;;;23.79
64296;BMP280;51082;38.236;15.432;2023-06-24T02:54:22;101051.38;;;23.77
64296;BMP280;51082;38.236;15.432;2023-06-24T02:55:25;101052.16;;;23.78
64296;BMP280;51082;38.236;15.432;2023-06-24T02:56:28;101052.94;;;23.78
64296;BMP280;51082;38.236;15.432;2023-06-24T02:57:32;101063.84;;;23.82
64296;BMP280;51082;38.236;15.432;2023-06-24T02:58:36;101053.69;;;23.84
64296;BMP280;51082;38.236;15.432;2023-06-24T02:59:39;101056.38;;;23.89
64296;BMP280;51082;38.236;15.432;2023-06-24T03:00:41;101054.22;;;23.91
64296;BMP280;51082;38.236;15.432;2023-06-24T03:01:44;101053.94;;;23.93
64296;BMP280;51082;38.236;15.432;2023-06-24T03:02:46;101052.91;;;23.94
64296;BMP280;51082;38.236;15.432;2023-06-24T03:03:51;101053.41;;;23.96
64296;BMP280;51082;38.236;15.432;2023-06-24T03:04:54;101049.38;;;23.98
64296;BMP280;51082;38.236;15.432;2023-06-24T03:06:00;101057.41;;;23.93
64296;BMP280;51082;38.236;15.432;2023-06-24T03:07:03;101051.28;;;23.93
64296;BMP280;51082;38.236;15.432;2023-06-24T03:08:06;101056.31;;;23.94
64296;BMP280;51082;38.236;15.432;2023-06-24T03:09:08;101064.84;;;23.91
64296;BMP280;51082;38.236;15.432;2023-06-24T03:10:12;101063.78;;;23.92
64296;BMP280;51082;38.236;15.432;2023-06-24T03:11:15;101066.97;;;23.94
64296;BMP280;51082;38.236;15.432;2023-06-24T03:12:18;101067.22;;;23.98
64296;BMP280;51082;38.236;15.432;2023-06-24T03:13:20;101077.59;;;23.99
64296;BMP280;51082;38.236;15.432;2023-06-24T03:14:22;101075.41;;;24.01
64296;BMP280;51082;38.236;15.432;2023-06-24T03:15:24;101088.72;;;24.01
64296;BMP280;51082;38.236;15.432;2023-06-24T03:16:27;101093.53;;;24.04
64296;BMP280;51082;38.236;15.432;2023-06-24T03:17:29;101093.78;;;24.08
64296;BMP280;51082;38.236;15.432;2023-06-24T03:18:32;101084.41;;;24.10
64296;BMP280;51082;38.236;15.432;2023-06-24T03:19:34;101086.53;;;24.13
64296;BMP280;51082;38.236;15.432;2023-06-24T03:20:36;101084.41;;;24.10
64296;BMP280;51082;38.236;15.432;2023-06-24T03:21:41;101097.72;;;24.10
64296;BMP280;51082;38.236;15.432;2023-06-24T03:22:44;101084.94;;;24.12
64296;BMP280;51082;38.236;15.432;2023-06-24T03:23:46;101082.81;;;24.15
64296;BMP280;51082;38.236;15.432;2023-06-24T03:24:49;101079.88;;;24.16
64296;BMP280;51082;38.236;15.432;2023-06-24T03:25:50;101082.53;;;24.16
64296;BMP280;51082;38.236;15.432;2023-06-24T03:26:53;101083.84;;;24.19
64296;BMP280;51082;38.236;15.432;2023-06-24T03:27:57;101076.94;;;24.18
64296;BMP280;51082;38.236;15.432;2023-06-24T03:29:01;101076.16;;;24.17
64296;BMP280;51082;38.236;15.432;2023-06-24T03:30:04;101075.34;;;24.17
64296;BMP280;51082;38.236;15.432;2023-06-24T03:31:06;101071.06;;;24.21
64296;BMP280;51082;38.236;15.432;2023-06-24T03:32:08;101075.03;;;24.23
64296;BMP280;51082;38.236;15.432;2023-06-24T03:33:11;101072.66;;;24.22
64296;BMP280;51082;38.236;15.432;2023-06-24T03:34:18;101071.56;;;24.23
64296;BMP280;51082;38.236;15.432;2023-06-24T03:35:20;101066.22;;;24.28
64296;BMP280;51082;38.236;15.432;2023-06-24T03:36:23;101064.63;;;24.27
64296;BMP280;51082;38.236;15.432;2023-06-24T03:37:27;101067.81;;;24.29
64296;BMP280;51082;38.236;15.432;2023-06-24T03:38:29;101074.72;;;24.30
64296;BMP280;51082;38.236;15.432;2023-06-24T03:39:32;101071.00;;;24.31
64296;BMP280;51082;38.236;15.432;2023-06-24T03:40:34;101069.41;;;24.30
64296;BMP280;51082;38.236;15.432;2023-06-24T03:41:37;101070.19;;;24.30
64296;BMP280;51082;38.236;15.432;2023-06-24T03:42:40;101068.06;;;24.32
64296;BMP280;51082;38.236;15.432;2023-06-24T03:43:42;101067.50;;;24.35
64296;BMP280;51082;38.236;15.432;2023-06-24T03:44:46;101063.78;;;24.36
64296;BMP280;51082;38.236;15.432;2023-06-24T03:45:48;101068.78;;;24.38
64296;BMP280;51082;38.236;15.432;2023-06-24T03:46:50;101075.97;;;24.37
64296;BMP280;51082;38.236;15.432;2023-06-24T03:47:53;101076.78;;;24.38
64296;BMP280;51082;38.236;15.432;2023-06-24T03:48:54;101087.41;;;24.38
64296;BMP280;51082;38.236;15.432;2023-06-24T03:49:57;101077.31;;;24.40
64296;BMP280;51082;38.236;15.432;2023-06-24T03:50:58;101089.53;;;24.41
64296;BMP280;51082;38.236;15.432;2023-06-24T03:52:01;101084.75;;;24.43
64296;BMP280;51082;38.236;15.432;2023-06-24T03:53:04;101083.69;;;24.44
64296;BMP280;51082;38.236;15.432;2023-06-24T03:54:07;101084.47;;;24.44
64296;BMP280;51082;38.236;15.432;2023-06-24T03:55:09;101080.44;;;24.47
64296;BMP280;51082;38.236;15.432;2023-06-24T03:56:12;101079.91;;;24.50
64296;BMP280;51082;38.236;15.432;2023-06-24T03:57:13;101081.47;;;24.51
64296;BMP280;51082;38.236;15.432;2023-06-24T03:58:16;101083.09;;;24.52
64296;BMP280;51082;38.236;15.432;2023-06-24T03:59:17;101071.03;;;24.60
64296;BMP280;51082;38.236;15.432;2023-06-24T04:00:21;101067.81;;;24.63
64296;BMP280;51082;38.236;15.432;2023-06-24T04:01:23;101069.63;;;24.67
64296;BMP280;51082;38.236;15.432;2023-06-24T04:02:25;101076.56;;;24.68
64296;BMP280;51082;38.236;15.432;2023-06-24T04:03:28;101076.56;;;24.68
64296;BMP280;51082;38.236;15.432;2023-06-24T04:04:31;101068.56;;;24.68
64296;BMP280;51082;38.236;15.432;2023-06-24T04:05:32;101072.00;;;24.69
64296;BMP280;51082;38.236;15.432;2023-06-24T04:06:35;101061.09;;;24.70
64296;BMP280;51082;38.236;15.432;2023-06-24T04:07:37;101071.72;;;24.75
64296;BMP280;51082;38.236;15.432;2023-06-24T04:08:41;101062.06;;;24.79
64296;BMP280;51082;38.236;15.432;2023-06-24T04:09:44;101064.69;;;24.85
64296;BMP280;51082;38.236;15.432;2023-06-24T04:10:46;101061.47;;;24.88
64296;BMP280;51082;38.236;15.432;2023-06-24T04:11:48;101060.88;;;24.91
64296;BMP280;51082;38.236;15.432;2023-06-24T04:12:51;101066.22;;;24.91
64296;BMP280;51082;38.236;15.432;2023-06-24T04:13:52;101058.22;;;24.91
64296;BMP280;51082;38.236;15.432;2023-06-24T04:14:55;101059.00;;;24.91
64296;BMP280;51082;38.236;15.432;2023-06-24T04:15:57;101059.81;;;24.92
64296;BMP280;51082;38.236;15.432;2023-06-24T04:17:00;101050.47;;;24.94
64296;BMP280;51082;38.236;15.432;2023-06-24T04:18:03;101048.03;;;24.98
64296;BMP280;51082;38.236;15.432;2023-06-24T04:19:06;101056.22;;;25.06
64296;BMP280;51082;38.236;15.432;2023-06-24T04:20:08;101055.63;;;25.09
64296;BMP280;51082;38.236;15.432;2023-06-24T04:21:11;101054.56;;;25.10
64296;BMP280;51082;38.236;15.432;2023-06-24T04:22:12;101058.81;;;25.11
64296;BMP280;51082;38.236;15.432;2023-06-24T04:23:15;101055.88;;;25.13
64296;BMP280;51082;38.236;15.432;2023-06-24T04:24:18;101056.66;;;25.13
64296;BMP280;51082;38.236;15.432;2023-06-24T04:25:21;101049.41;;;25.19
64296;BMP280;51082;38.236;15.432;2023-06-24T04:26:23;101042.69;;;25.22
64296;BMP280;51082;38.236;15.432;2023-06-24T04:27:25;101048.81;;;25.22
64296;BMP280;51082;38.236;15.432;2023-06-24T04:28:27;101044.50;;;25.26
64296;BMP280;51082;38.236;15.432;2023-06-24T04:29:30;101044.25;;;25.28
64296;BMP280;51082;38.236;15.432;2023-06-24T04:30:32;101041.78;;;25.31
64296;BMP280;51082;38.236;15.432;2023-06-24T04:31:36;101034.31;;;25.33
64296;BMP280;51082;38.236;15.432;2023-06-24T04:32:38;101031.00;;;25.41
64296;BMP280;51082;38.236;15.432;2023-06-24T04:33:40;101033.63;;;25.46
64296;BMP280;51082;38.236;15.432;2023-06-24T04:34:42;101033.63;;;25.46
64296;BMP280;51082;38.236;15.432;2023-06-24T04:35:45;101030.66;;;25.48
64296;BMP280;51082;38.236;15.432;2023-06-24T04:36:46;101036.19;;;25.51
64296;BMP280;51082;38.236;15.432;2023-06-24T04:37:49;101035.66;;;25.55
64296;BMP280;51082;38.236;15.432;2023-06-24T04:38:51;101042.78;;;25.59
64296;BMP280;51082;38.236;15.432;2023-06-24T04:39:55;101041.94;;;25.59
64296;BMP280;51082;38.236;15.432;2023-06-24T04:40:57;101044.84;;;25.62
64296;BMP280;51082;38.236;15.432;2023-06-24T04:42:00;101053.66;;;25.63
64296;BMP280;51082;38.236;15.432;2023-06-24T04:43:01;101051.50;;;25.65
64296;BMP280;51082;38.236;15.432;2023-06-24T04:44:04;101046.09;;;25.70
64296;BMP280;51082;38.236;15.432;2023-06-24T04:45:07;101046.56;;;25.72
64296;BMP280;51082;38.236;15.432;2023-06-24T04:46:10;101055.91;;;25.74
64296;BMP280;51082;38.236;15.432;2023-06-24T04:47:11;101055.03;;;25.79
64296;BMP280;51082;38.236;15.432;2023-06-24T04:48:15;101054.25;;;25.78
64296;BMP280;51082;38.236;15.432;2023-06-24T04:49:16;101051.28;;;25.80
64296;BMP280;51082;38.236;15.432;2023-06-24T04:50:19;101040.94;;;25.78
64296;BMP280;51082;38.236;15.432;2023-06-24T04:51:21;101053.09;;;25.84
64296;BMP280;51082;38.236;15.432;2023-06-24T04:52:24;101048.03;;;25.83
64296;BMP280;51082;38.236;15.432;2023-06-24T04:53:25;101053.22;;;25.93
64296;BMP280;51082;38.236;15.432;2023-06-24T04:54:28;101060.06;;;25.99
64296;BMP280;51082;38.236;15.432;2023-06-24T04:55:31;101053.88;;;26.04
64296;BMP280;51082;38.236;15.432;2023-06-24T04:56:34;101059.63;;;26.11
64296;BMP280;51082;38.236;15.432;2023-06-24T04:57:36;101067.53;;;26.16
64296;BMP280;51082;38.236;15.432;2023-06-24T04:58:38;101065.19;;;26.14
64296;BMP280;51082;38.236;15.432;2023-06-24T04:59:40;101070.22;;;26.16
64296;BMP280;51082;38.236;15.432;2023-06-24T05:00:43;101061.41;;;26.15
64296;BMP280;51082;38.236;15.432;2023-06-24T05:01:44;101062.94;;;26.21
64296;BMP280;51082;38.236;15.432;2023-06-24T05:02:47;101071.56;;;26.32
64296;BMP280;51082;38.236;15.432;2023-06-24T05:03:49;101078.13;;;26.40
64296;BMP280;51082;38.236;15.432;2023-06-24T05:04:52;101068.25;;;26.40
64296;BMP280;51082;38.236;15.432;2023-06-24T05:05:54;101085.19;;;26.49
64296;BMP280;51082;38.236;15.432;2023-06-24T05:06:57;101085.97;;;26.50
64296;BMP280;51082;38.236;15.432;2023-06-24T05:07:59;101085.06;;;26.54
64296;BMP280;51082;38.236;15.432;2023-06-24T05:09:01;101089.47;;;26.64
64296;BMP280;51082;38.236;15.432;2023-06-24T05:10:03;101089.47;;;26.64
64296;BMP280;51082;38.236;15.432;2023-06-24T05:11:07;101085.63;;;26.70
64296;BMP280;51082;38.236;15.432;2023-06-24T05:12:09;101088.69;;;26.77
64296;BMP280;51082;38.236;15.432;2023-06-24T05:13:12;101086.72;;;26.83
64296;BMP280;51082;38.236;15.432;2023-06-24T05:14:14;101097.03;;;26.89
64296;BMP280;51082;38.236;15.432;2023-06-24T05:15:16;101097.22;;;26.93
64296;BMP280;51082;38.236;15.432;2023-06-24T05:16:18;101098.00;;;26.93
64296;BMP280;51082;38.236;15.432;2023-06-24T05:17:20;101095.84;;;26.95
64296;BMP280;51082;38.236;15.432;2023-06-24T05:18:22;101098.41;;;27.01
64296;BMP280;51082;38.236;15.432;2023-06-24T05:19:25;101099.41;;;27.05
64296;BMP280;51082;38.236;15.432;2023-06-24T05:20:27;101102.16;;;27.13
64296;BMP280;51082;38.236;15.432;2023-06-24T05:21:30;101102.59;;;27.20
64296;BMP280;51082;38.236;15.432;2023-06-24T05:22:31;101099.97;;;27.29
64296;BMP280;51082;38.236;15.432;2023-06-24T05:23:34;101103.16;;;27.31
64296;BMP280;51082;38.236;15.432;2023-06-24T05:24:36;101100.38;;;27.36
64296;BMP280;51082;38.236;15.432;2023-06-24T05:25:38;101104.53;;;27.42
64296;BMP280;51082;38.236;15.432;2023-06-24T05:26:41;101106.53;;;27.37
64296;BMP280;51082;38.236;15.432;2023-06-24T05:27:44;101114.25;;;27.38
64296;BMP280;51082;38.236;15.432;2023-06-24T05:28:46;101101.66;;;27.39
64296;BMP280;51082;38.236;15.432;2023-06-24T05:29:48;101102.66;;;27.43
64296;BMP280;51082;38.236;15.432;2023-06-24T05:30:50;101108.69;;;27.48
64296;BMP280;51082;38.236;15.432;2023-06-24T05:31:53;101102.44;;;27.53
64296;BMP280;51082;38.236;15.432;2023-06-24T05:32:54;101104.41;;;27.61
64296;BMP280;51082;38.236;15.432;2023-06-24T05:33:57;101106.66;;;27.67
64296;BMP280;51082;38.236;15.432;2023-06-24T05:34:59;101104.50;;;27.69
64296;BMP280;51082;38.236;15.432;2023-06-24T05:36:01;101111.00;;;27.77
64296;BMP280;51082;38.236;15.432;2023-06-24T05:37:03;101106.84;;;27.85
64296;BMP280;51082;38.236;15.432;2023-06-24T05:38:06;101112.84;;;27.90
64296;BMP280;51082;38.236;15.432;2023-06-24T05:39:07;101113.81;;;27.94
64296;BMP280;51082;38.236;15.432;2023-06-24T05:40:11;101112.91;;;27.99
64296;BMP280;51082;38.236;15.432;2023-06-24T05:41:13;101117.66;;;28.02
64296;BMP280;51082;38.236;15.432;2023-06-24T05:42:18;101116.25;;;28.04
64296;BMP280;51082;38.236;15.432;2023-06-24T05:43:19;101119.13;;;28.08
64296;BMP280;51082;38.236;15.432;2023-06-24T05:44:22;101123.88;;;28.11
64296;BMP280;51082;38.236;15.432;2023-06-24T05:45:24;101126.75;;;28.15
64296;BMP280;51082;38.236;15.432;2023-06-24T05:46:27;101122.50;;;28.22
64296;BMP280;51082;38.236;15.432;2023-06-24T05:47:28;101124.59;;;28.25
64296;BMP280;51082;38.236;15.432;2023-06-24T05:48:31;101130.81;;;28.34
64296;BMP280;51082;38.236;15.432;2023-06-24T05:49:32;101135.75;;;28.41
64296;BMP280;51082;38.236;15.432;2023-06-24T05:50:35;101135.75;;;28.50
64296;BMP280;51082;38.236;15.432;2023-06-24T05:51:37;101142.59;;;28.56
64296;BMP280;51082;38.236;15.432;2023-06-24T05:52:39;101142.34;;;28.66
64296;BMP280;51082;38.236;15.432;2023-06-24T05:53:41;101147.56;;;28.71
64296;BMP280;51082;38.236;15.432;2023-06-24T05:54:44;101146.63;;;28.75
64296;BMP280;51082;38.236;15.432;2023-06-24T05:55:45;101147.59;;;28.79
64296;BMP280;51082;38.236;15.432;2023-06-24T05:56:48;101144.78;;;28.84